Sd Salmaid — GAAM — position and weather

sailwx.info

Track history (hours):
 
Tides and Currents Weather Stations Pressure Air Temp Water Temp Dewpoint Dewpoint Depression Visibility Wind Speed Wind Dir Waves Ship Positions

Sd Salmaid

Last reported at 2017-Oct-08 06:42 UTC. Time now 2017-Nov-25 00:18 UTC.
Position N 40°25' W 009°27'.
Warning: this ship's position is 47 days out of date.

Length 76 m; draft 3.8 m.

Type: Other ship. MMSI: 235003700.

Date/timePositionNaut miles runAvg speedWind from/ knotsBaromVisibWave heightAir tempDewpointWater temp
2017-Oct-08 06:42N 40°25' W 009°27'4 6.0
2017-Oct-08 06:06N 40°22' W 009°28'1 5.8
2017-Oct-08 05:59N 40°21' W 009°28'3 5.7
2017-Oct-08 05:30N 40°19' W 009°29'3 5.6
2017-Oct-08 05:00N 40°16' W 009°31'3 5.6
2017-Oct-08 04:30N 40°13' W 009°32'4 5.6
2017-Oct-08 03:53N 40°10' W 009°32'2 5.6
2017-Oct-08 03:29N 40°08' W 009°33'3 5.7
2017-Oct-08 02:59N 40°05' W 009°33'3 5.7
2017-Oct-08 02:30N 40°02' W 009°34'3 5.8
2017-Oct-08 01:58N 39°59' W 009°35'3 5.7
2017-Oct-08 01:30N 39°57' W 009°35'3 5.7
2017-Oct-08 00:59N 39°54' W 009°36'4 5.8
2017-Oct-08 00:16N 39°50' W 009°37'2 5.8
2017-Oct-07 23:56N 39°48' W 009°38'2 5.7
2017-Oct-07 23:30N 39°45' W 009°39'3 5.8
2017-Oct-07 22:59N 39°42' W 009°39'3 5.8
2017-Oct-07 22:31N 39°40' W 009°40'3 6.0
2017-Oct-07 22:00N 39°37' W 009°41'3 6.0
2017-Oct-07 21:30N 39°34' W 009°42'3 5.7
2017-Oct-07 21:00N 39°31' W 009°42'3 5.5
2017-Oct-07 20:30N 39°28' W 009°43'3 5.2
2017-Oct-07 20:00N 39°26' W 009°43'3 5.2
2017-Oct-07 19:31N 39°23' W 009°43'3 5.0
2017-Oct-07 19:00N 39°21' W 009°43'2 3.7
2017-Oct-07 18:30N 39°20' W 009°41'3 5.9
2017-Oct-07 17:59N 39°20' W 009°37'3 5.8
2017-Oct-07 17:30N 39°20' W 009°33'3 5.9
2017-Oct-07 17:00N 39°20' W 009°30'3 4.9
2017-Oct-07 16:29N 39°20' W 009°26'2 4.4
2017-Oct-07 16:00N 39°20' W 009°24'0 0.6
2017-Oct-07 15:23N 39°20' W 009°23'1 2.6
2017-Oct-07 14:55N 39°21' W 009°22'0 0.2
2017-Oct-07 13:36N 39°21' W 009°22'0 0.0
2017-Oct-07 13:27N 39°21' W 009°22'0 0.0
2017-Oct-07 12:59N 39°21' W 009°22'0 0.0
2017-Oct-07 12:29N 39°21' W 009°22'0 0.0
2017-Oct-07 12:00N 39°21' W 009°22'0 0.0
2017-Oct-07 11:29N 39°21' W 009°22'0 0.0
2017-Oct-07 11:00N 39°21' W 009°22'0 0.0
2017-Oct-07 10:30N 39°21' W 009°22'0 0.0
2017-Oct-07 10:00N 39°21' W 009°22'0 0.0
2017-Oct-07 09:30N 39°21' W 009°22'0 0.0
2017-Oct-07 09:00N 39°21' W 009°22'0 0.0
2017-Oct-07 08:30N 39°21' W 009°22'0 0.0
2017-Oct-07 08:00N 39°21' W 009°22'0 0.0
2017-Oct-07 07:30N 39°21' W 009°22'0 0.0
2017-Oct-07 07:00N 39°21' W 009°22'0 0.0
2017-Oct-07 06:30N 39°21' W 009°22'0 0.0
2017-Oct-07 06:00N 39°21' W 009°22'0 0.0
2017-Oct-07 05:30N 39°21' W 009°22'0 0.0
2017-Oct-07 05:00N 39°21' W 009°22'0 0.0
2017-Oct-07 04:19N 39°21' W 009°22'0 0.0
2017-Oct-07 03:59N 39°21' W 009°22'0 0.0
2017-Oct-07 03:30N 39°21' W 009°22'0 0.0
2017-Oct-07 03:00N 39°21' W 009°22'0 0.0
2017-Oct-07 02:30N 39°21' W 009°22'0 0.0
2017-Oct-07 02:00N 39°21' W 009°22'0 0.0
2017-Oct-07 01:31N 39°21' W 009°22'0 0.0
2017-Oct-07 01:01N 39°21' W 009°22'0 0.0
2017-Oct-07 00:30N 39°21' W 009°22'0 0.0
2017-Oct-06 22:45N 39°21' W 009°22'0 0.0
2017-Oct-06 22:10N 39°21' W 009°22'0 0.0
2017-Oct-06 21:58N 39°21' W 009°22'0 0.0
2017-Oct-06 21:30N 39°21' W 009°22'0 0.0
2017-Oct-06 20:59N 39°21' W 009°22'0 0.0
2017-Oct-06 20:30N 39°21' W 009°22'0 0.0
2017-Oct-06 20:00N 39°21' W 009°22'0 0.0
2017-Oct-06 19:30N 39°21' W 009°22'0 0.0
2017-Oct-06 18:52N 39°21' W 009°22'0 0.0
2017-Oct-06 18:30N 39°21' W 009°22'0 0.0
2017-Oct-06 17:58N 39°21' W 009°22'0 0.0
2017-Oct-06 17:30N 39°21' W 009°22'0 0.0
2017-Oct-06 17:00N 39°21' W 009°22'0 0.0
2017-Oct-06 16:30N 39°21' W 009°22'0 0.0
2017-Oct-06 16:00N 39°21' W 009°22'0 0.0
2017-Oct-06 15:30N 39°21' W 009°22'0 0.0
2017-Oct-06 15:00N 39°21' W 009°22'0 0.0
2017-Oct-06 14:30N 39°21' W 009°22'0 0.0
2017-Oct-06 14:00N 39°21' W 009°22'0 0.0
2017-Oct-06 13:16N 39°21' W 009°22'0 0.0
2017-Oct-06 10:38N 39°21' W 009°22'0 0.0
2017-Oct-06 10:30N 39°21' W 009°22'0 0.0
2017-Oct-06 10:00N 39°21' W 009°22'0 0.0
2017-Oct-06 09:30N 39°21' W 009°22'0 0.0
2017-Oct-06 08:59N 39°21' W 009°22'0 0.0
2017-Oct-06 08:31N 39°21' W 009°22'0 0.0
2017-Oct-06 08:01N 39°21' W 009°22'0 0.0
2017-Oct-06 07:30N 39°21' W 009°22'0 0.0
2017-Oct-06 07:00N 39°21' W 009°22'0 0.0
2017-Oct-06 06:30N 39°21' W 009°22'0 0.0
2017-Oct-06 06:00N 39°21' W 009°22'0 0.0
2017-Oct-06 05:30N 39°21' W 009°22'0 0.0
2017-Oct-06 05:00N 39°21' W 009°22'0 0.0
2017-Oct-06 04:30N 39°21' W 009°22'0 0.0
2017-Oct-06 04:00N 39°21' W 009°22'0 0.0
2017-Oct-06 03:30N 39°21' W 009°22'0 0.0
2017-Oct-06 03:00N 39°21' W 009°22'0 0.0
2017-Oct-06 02:30N 39°21' W 009°22'0 0.0
2017-Oct-06 02:00N 39°21' W 009°22'0 0.0
2017-Oct-06 01:30N 39°21' W 009°22'0 0.0
2017-Oct-06 01:00N 39°21' W 009°22'0 0.0
2017-Oct-06 00:30N 39°21' W 009°22'0 0.0
2017-Oct-06 00:00N 39°21' W 009°22'0 0.0
2017-Oct-05 23:31N 39°21' W 009°22'0 0.0
2017-Oct-05 22:55N 39°21' W 009°22'0 0.0
2017-Oct-05 13:44N 39°21' W 009°22'0 0.0
2017-Oct-05 12:49N 39°21' W 009°22'0 0.0
2017-Oct-05 03:21N 39°21' W 009°22'0 0.0
2017-Oct-05 02:55N 39°21' W 009°22'0 0.0
2017-Oct-05 02:24N 39°21' W 009°22'0 0.0
2017-Oct-05 01:45N 39°21' W 009°22'0 0.0
2017-Oct-05 00:55N 39°21' W 009°22'0 0.0
2017-Oct-04 22:44N 39°21' W 009°22'0 0.0
2017-Oct-04 06:07N 39°21' W 009°22'0 0.0
2017-Oct-04 05:40N 39°21' W 009°22'0 0.0
2017-Oct-04 04:13N 39°21' W 009°22'0 0.0
2017-Oct-04 03:46N 39°21' W 009°22'0 0.0
2017-Oct-04 03:29N 39°21' W 009°22'0 0.0
2017-Oct-04 01:39N 39°21' W 009°22'0 0.0
2017-Oct-04 01:27N 39°21' W 009°22'0 0.0
2017-Oct-04 00:28N 39°21' W 009°22'0 0.0
2017-Oct-03 16:40N 39°21' W 009°22'0 0.0
2017-Oct-03 16:30N 39°21' W 009°22'0 0.0
2017-Oct-03 15:59N 39°21' W 009°22'0 0.0
2017-Oct-03 15:22N 39°21' W 009°22'0 0.0
2017-Oct-03 15:00N 39°21' W 009°22'0 0.0
2017-Oct-03 13:51N 39°21' W 009°22'0 0.0
2017-Oct-03 11:36N 39°21' W 009°22'0 0.0
2017-Oct-03 11:14N 39°21' W 009°22'0 0.0
2017-Oct-03 01:32N 39°21' W 009°22'0 0.0
2017-Oct-03 01:27N 39°21' W 009°22'0 0.0
2017-Oct-02 17:14N 39°21' W 009°22'0 0.0
2017-Oct-02 15:32N 39°21' W 009°22'0 0.0
2017-Oct-02 15:27N 39°21' W 009°22'0 0.0
2017-Oct-02 15:00N 39°21' W 009°22'0 0.0
2017-Oct-02 14:30N 39°21' W 009°22'0 0.0
2017-Oct-02 14:00N 39°21' W 009°22'0 0.0
2017-Oct-02 13:30N 39°21' W 009°22'0 0.0
2017-Oct-02 13:00N 39°21' W 009°22'0 0.0
2017-Oct-02 12:30N 39°21' W 009°22'0 0.0
2017-Oct-02 12:00N 39°21' W 009°22'0 0.0
2017-Oct-02 11:30N 39°21' W 009°22'0 0.0
2017-Oct-02 11:00N 39°21' W 009°22'0 0.0
2017-Oct-02 10:30N 39°21' W 009°22'0 0.0
2017-Oct-02 10:00N 39°21' W 009°22'0 0.0
2017-Oct-02 09:30N 39°21' W 009°22'0 0.0
2017-Oct-02 09:00N 39°21' W 009°22'0 0.0
2017-Oct-02 08:30N 39°21' W 009°22'0 0.0
2017-Oct-02 08:00N 39°21' W 009°22'0 0.0
2017-Oct-02 07:30N 39°21' W 009°22'0 0.0
2017-Oct-02 07:00N 39°21' W 009°22'0 0.0
2017-Oct-02 06:31N 39°21' W 009°22'0 0.0
2017-Oct-02 06:00N 39°21' W 009°22'0 0.0
2017-Oct-02 05:30N 39°21' W 009°22'0 0.0
2017-Oct-02 04:50N 39°21' W 009°22'0 0.0
2017-Oct-02 04:29N 39°21' W 009°22'0 0.0
2017-Oct-02 02:59N 39°21' W 009°22'0 0.0
2017-Oct-02 02:30N 39°21' W 009°22'0 0.0
2017-Oct-02 00:30N 39°21' W 009°22'0 0.0
2017-Sep-30 01:30N 39°21' W 009°22'0 0.0
2017-Sep-30 00:55N 39°21' W 009°22'0 0.0
2017-Sep-30 00:30N 39°21' W 009°22'0 0.0
2017-Sep-29 23:49N 39°21' W 009°22'0 0.0
2017-Sep-29 14:30N 39°21' W 009°22'0 0.0
2017-Sep-29 13:12N 39°21' W 009°22'0 0.0
2017-Sep-29 12:40N 39°21' W 009°22'0 0.0
2017-Sep-29 12:21N 39°21' W 009°22'0 0.0
2017-Sep-29 11:58N 39°21' W 009°22'0 0.0
2017-Sep-29 11:27N 39°21' W 009°22'0 0.0
2017-Sep-29 10:58N 39°21' W 009°22'0 0.0
2017-Sep-29 10:23N 39°21' W 009°22'0 0.0
2017-Sep-29 09:47N 39°21' W 009°22'0 0.0
2017-Sep-29 09:12N 39°21' W 009°22'0 0.0
2017-Sep-29 08:46N 39°21' W 009°22'0 0.0
2017-Sep-29 08:20N 39°21' W 009°22'0 0.0
2017-Sep-29 07:39N 39°21' W 009°22'0 0.0
2017-Sep-29 07:28N 39°21' W 009°22'0 0.0
2017-Sep-29 07:00N 39°21' W 009°22'0 0.0
2017-Sep-29 05:26N 39°21' W 009°22'0 0.0
2017-Sep-29 04:58N 39°21' W 009°22'0 0.0
2017-Sep-29 04:30N 39°21' W 009°22'0 0.0
2017-Sep-29 03:59N 39°21' W 009°22'0 0.0
2017-Sep-29 03:10N 39°21' W 009°22'0 0.0
2017-Sep-29 02:56N 39°21' W 009°22'0 0.0
2017-Sep-29 02:29N 39°21' W 009°22'0 0.0
2017-Sep-29 01:41N 39°21' W 009°22'0 0.0
2017-Sep-29 01:27N 39°21' W 009°22'0 0.0
2017-Sep-29 01:00N 39°21' W 009°22'0 0.0
2017-Sep-29 00:27N 39°21' W 009°22'0 0.0
2017-Sep-29 00:00N 39°21' W 009°22'0 0.0
2017-Sep-28 23:20N 39°21' W 009°22'0 0.0
2017-Sep-28 22:59N 39°21' W 009°22'0 0.0
2017-Sep-28 21:33N 39°21' W 009°22'0 0.0
2017-Sep-28 20:20N 39°21' W 009°22'0 0.0
2017-Sep-28 20:00N 39°21' W 009°22'0 0.0
2017-Sep-28 19:30N 39°21' W 009°22'0 0.0
2017-Sep-28 18:57N 39°21' W 009°22'0 0.0
2017-Sep-28 18:07N 39°21' W 009°22'0 0.0
2017-Sep-28 18:00N 39°21' W 009°22'0 0.0
2017-Sep-28 17:24N 39°21' W 009°22'0 0.0
2017-Sep-28 17:00N 39°21' W 009°22'0 0.0
2017-Sep-28 16:23N 39°21' W 009°22'0 0.0
2017-Sep-28 15:57N 39°21' W 009°22'0 0.0
2017-Sep-28 15:30N 39°21' W 009°22'0 0.0
2017-Sep-28 14:59N 39°21' W 009°22'0 0.0
2017-Sep-28 14:30N 39°21' W 009°22'0 0.0
2017-Sep-28 13:49N 39°21' W 009°22'0 0.0
2017-Sep-28 13:28N 39°21' W 009°22'0 0.0
2017-Sep-28 12:57N 39°21' W 009°22'0 0.0
2017-Sep-28 12:30N 39°21' W 009°22'0 0.0
2017-Sep-28 11:04N 39°21' W 009°22'0 0.0
2017-Sep-28 10:40N 39°21' W 009°22'0 0.0
2017-Sep-28 10:20N 39°21' W 009°22'0 0.0
2017-Sep-28 09:59N 39°21' W 009°22'0 0.0
2017-Sep-28 09:30N 39°21' W 009°22'0 0.0
2017-Sep-28 08:10N 39°21' W 009°22'0 0.0
2017-Sep-28 07:57N 39°21' W 009°22'0 0.0
2017-Sep-28 07:30N 39°21' W 009°22'0 0.0
2017-Sep-28 07:00N 39°21' W 009°22'  
Track history (hours):
 
Tides and Currents Weather Stations Pressure Air Temp Water Temp Dewpoint Dewpoint Depression Visibility Wind Speed Wind Dir Waves Ship Positions

Sd Salmaid

Last reported at 2017-Oct-08 06:42 UTC. Time now 2017-Nov-25 00:18 UTC.
Position N 40°25' W 009°27'.
Warning: this ship's position is 47 days out of date.

Length 76 m; draft 3.8 m.

Type: Other ship. MMSI: 235003700.

Date/timePositionNaut miles runAvg speedWind from/ knotsBaromVisibWave heightAir tempDewpointWater temp
2017-Oct-08 06:42N 40°25' W 009°27'4 6.0
2017-Oct-08 06:06N 40°22' W 009°28'1 5.8
2017-Oct-08 05:59N 40°21' W 009°28'3 5.7
2017-Oct-08 05:30N 40°19' W 009°29'3 5.6
2017-Oct-08 05:00N 40°16' W 009°31'3 5.6
2017-Oct-08 04:30N 40°13' W 009°32'4 5.6
2017-Oct-08 03:53N 40°10' W 009°32'2 5.6
2017-Oct-08 03:29N 40°08' W 009°33'3 5.7
2017-Oct-08 02:59N 40°05' W 009°33'3 5.7
2017-Oct-08 02:30N 40°02' W 009°34'3 5.8
2017-Oct-08 01:58N 39°59' W 009°35'3 5.7
2017-Oct-08 01:30N 39°57' W 009°35'3 5.7
2017-Oct-08 00:59N 39°54' W 009°36'4 5.8
2017-Oct-08 00:16N 39°50' W 009°37'2 5.8
2017-Oct-07 23:56N 39°48' W 009°38'2 5.7
2017-Oct-07 23:30N 39°45' W 009°39'3 5.8
2017-Oct-07 22:59N 39°42' W 009°39'3 5.8
2017-Oct-07 22:31N 39°40' W 009°40'3 6.0
2017-Oct-07 22:00N 39°37' W 009°41'3 6.0
2017-Oct-07 21:30N 39°34' W 009°42'3 5.7
2017-Oct-07 21:00N 39°31' W 009°42'3 5.5
2017-Oct-07 20:30N 39°28' W 009°43'3 5.2
2017-Oct-07 20:00N 39°26' W 009°43'3 5.2
2017-Oct-07 19:31N 39°23' W 009°43'3 5.0
2017-Oct-07 19:00N 39°21' W 009°43'2 3.7
2017-Oct-07 18:30N 39°20' W 009°41'3 5.9
2017-Oct-07 17:59N 39°20' W 009°37'3 5.8
2017-Oct-07 17:30N 39°20' W 009°33'3 5.9
2017-Oct-07 17:00N 39°20' W 009°30'3 4.9
2017-Oct-07 16:29N 39°20' W 009°26'2 4.4
2017-Oct-07 16:00N 39°20' W 009°24'0 0.6
2017-Oct-07 15:23N 39°20' W 009°23'1 2.6
2017-Oct-07 14:55N 39°21' W 009°22'0 0.2
2017-Oct-07 13:36N 39°21' W 009°22'0 0.0
2017-Oct-07 13:27N 39°21' W 009°22'0 0.0
2017-Oct-07 12:59N 39°21' W 009°22'0 0.0
2017-Oct-07 12:29N 39°21' W 009°22'0 0.0
2017-Oct-07 12:00N 39°21' W 009°22'0 0.0
2017-Oct-07 11:29N 39°21' W 009°22'0 0.0
2017-Oct-07 11:00N 39°21' W 009°22'0 0.0
2017-Oct-07 10:30N 39°21' W 009°22'0 0.0
2017-Oct-07 10:00N 39°21' W 009°22'0 0.0
2017-Oct-07 09:30N 39°21' W 009°22'0 0.0
2017-Oct-07 09:00N 39°21' W 009°22'0 0.0
2017-Oct-07 08:30N 39°21' W 009°22'0 0.0
2017-Oct-07 08:00N 39°21' W 009°22'0 0.0
2017-Oct-07 07:30N 39°21' W 009°22'0 0.0
2017-Oct-07 07:00N 39°21' W 009°22'0 0.0
2017-Oct-07 06:30N 39°21' W 009°22'0 0.0
2017-Oct-07 06:00N 39°21' W 009°22'0 0.0
2017-Oct-07 05:30N 39°21' W 009°22'0 0.0
2017-Oct-07 05:00N 39°21' W 009°22'0 0.0
2017-Oct-07 04:19N 39°21' W 009°22'0 0.0
2017-Oct-07 03:59N 39°21' W 009°22'0 0.0
2017-Oct-07 03:30N 39°21' W 009°22'0 0.0
2017-Oct-07 03:00N 39°21' W 009°22'0 0.0
2017-Oct-07 02:30N 39°21' W 009°22'0 0.0
2017-Oct-07 02:00N 39°21' W 009°22'0 0.0
2017-Oct-07 01:31N 39°21' W 009°22'0 0.0
2017-Oct-07 01:01N 39°21' W 009°22'0 0.0
2017-Oct-07 00:30N 39°21' W 009°22'0 0.0
2017-Oct-06 22:45N 39°21' W 009°22'0 0.0
2017-Oct-06 22:10N 39°21' W 009°22'0 0.0
2017-Oct-06 21:58N 39°21' W 009°22'0 0.0
2017-Oct-06 21:30N 39°21' W 009°22'0 0.0
2017-Oct-06 20:59N 39°21' W 009°22'0 0.0
2017-Oct-06 20:30N 39°21' W 009°22'0 0.0
2017-Oct-06 20:00N 39°21' W 009°22'0 0.0
2017-Oct-06 19:30N 39°21' W 009°22'0 0.0
2017-Oct-06 18:52N 39°21' W 009°22'0 0.0
2017-Oct-06 18:30N 39°21' W 009°22'0 0.0
2017-Oct-06 17:58N 39°21' W 009°22'0 0.0
2017-Oct-06 17:30N 39°21' W 009°22'0 0.0
2017-Oct-06 17:00N 39°21' W 009°22'0 0.0
2017-Oct-06 16:30N 39°21' W 009°22'0 0.0
2017-Oct-06 16:00N 39°21' W 009°22'0 0.0
2017-Oct-06 15:30N 39°21' W 009°22'0 0.0
2017-Oct-06 15:00N 39°21' W 009°22'0 0.0
2017-Oct-06 14:30N 39°21' W 009°22'0 0.0
2017-Oct-06 14:00N 39°21' W 009°22'0 0.0
2017-Oct-06 13:16N 39°21' W 009°22'0 0.0
2017-Oct-06 10:38N 39°21' W 009°22'0 0.0
2017-Oct-06 10:30N 39°21' W 009°22'0 0.0
2017-Oct-06 10:00N 39°21' W 009°22'0 0.0
2017-Oct-06 09:30N 39°21' W 009°22'0 0.0
2017-Oct-06 08:59N 39°21' W 009°22'0 0.0
2017-Oct-06 08:31N 39°21' W 009°22'0 0.0
2017-Oct-06 08:01N 39°21' W 009°22'0 0.0
2017-Oct-06 07:30N 39°21' W 009°22'0 0.0
2017-Oct-06 07:00N 39°21' W 009°22'0 0.0
2017-Oct-06 06:30N 39°21' W 009°22'0 0.0
2017-Oct-06 06:00N 39°21' W 009°22'0 0.0
2017-Oct-06 05:30N 39°21' W 009°22'0 0.0
2017-Oct-06 05:00N 39°21' W 009°22'0 0.0
2017-Oct-06 04:30N 39°21' W 009°22'0 0.0
2017-Oct-06 04:00N 39°21' W 009°22'0 0.0
2017-Oct-06 03:30N 39°21' W 009°22'0 0.0
2017-Oct-06 03:00N 39°21' W 009°22'0 0.0
2017-Oct-06 02:30N 39°21' W 009°22'0 0.0
2017-Oct-06 02:00N 39°21' W 009°22'0 0.0
2017-Oct-06 01:30N 39°21' W 009°22'0 0.0
2017-Oct-06 01:00N 39°21' W 009°22'0 0.0
2017-Oct-06 00:30N 39°21' W 009°22'0 0.0
2017-Oct-06 00:00N 39°21' W 009°22'0 0.0
2017-Oct-05 23:31N 39°21' W 009°22'0 0.0
2017-Oct-05 22:55N 39°21' W 009°22'0 0.0
2017-Oct-05 13:44N 39°21' W 009°22'0 0.0
2017-Oct-05 12:49N 39°21' W 009°22'0 0.0
2017-Oct-05 03:21N 39°21' W 009°22'0 0.0
2017-Oct-05 02:55N 39°21' W 009°22'0 0.0
2017-Oct-05 02:24N 39°21' W 009°22'0 0.0
2017-Oct-05 01:45N 39°21' W 009°22'0 0.0
2017-Oct-05 00:55N 39°21' W 009°22'0 0.0
2017-Oct-04 22:44N 39°21' W 009°22'0 0.0
2017-Oct-04 06:07N 39°21' W 009°22'0 0.0
2017-Oct-04 05:40N 39°21' W 009°22'0 0.0
2017-Oct-04 04:13N 39°21' W 009°22'0 0.0
2017-Oct-04 03:46N 39°21' W 009°22'0 0.0
2017-Oct-04 03:29N 39°21' W 009°22'0 0.0
2017-Oct-04 01:39N 39°21' W 009°22'0 0.0
2017-Oct-04 01:27N 39°21' W 009°22'0 0.0
2017-Oct-04 00:28N 39°21' W 009°22'0 0.0
2017-Oct-03 16:40N 39°21' W 009°22'0 0.0
2017-Oct-03 16:30N 39°21' W 009°22'0 0.0
2017-Oct-03 15:59N 39°21' W 009°22'0 0.0
2017-Oct-03 15:22N 39°21' W 009°22'0 0.0
2017-Oct-03 15:00N 39°21' W 009°22'0 0.0
2017-Oct-03 13:51N 39°21' W 009°22'0 0.0
2017-Oct-03 11:36N 39°21' W 009°22'0 0.0
2017-Oct-03 11:14N 39°21' W 009°22'0 0.0
2017-Oct-03 01:32N 39°21' W 009°22'0 0.0
2017-Oct-03 01:27N 39°21' W 009°22'0 0.0
2017-Oct-02 17:14N 39°21' W 009°22'0 0.0
2017-Oct-02 15:32N 39°21' W 009°22'0 0.0
2017-Oct-02 15:27N 39°21' W 009°22'0 0.0
2017-Oct-02 15:00N 39°21' W 009°22'0 0.0
2017-Oct-02 14:30N 39°21' W 009°22'0 0.0
2017-Oct-02 14:00N 39°21' W 009°22'0 0.0
2017-Oct-02 13:30N 39°21' W 009°22'0 0.0
2017-Oct-02 13:00N 39°21' W 009°22'0 0.0
2017-Oct-02 12:30N 39°21' W 009°22'0 0.0
2017-Oct-02 12:00N 39°21' W 009°22'0 0.0
2017-Oct-02 11:30N 39°21' W 009°22'0 0.0
2017-Oct-02 11:00N 39°21' W 009°22'0 0.0
2017-Oct-02 10:30N 39°21' W 009°22'0 0.0
2017-Oct-02 10:00N 39°21' W 009°22'0 0.0
2017-Oct-02 09:30N 39°21' W 009°22'0 0.0
2017-Oct-02 09:00N 39°21' W 009°22'0 0.0
2017-Oct-02 08:30N 39°21' W 009°22'0 0.0
2017-Oct-02 08:00N 39°21' W 009°22'0 0.0
2017-Oct-02 07:30N 39°21' W 009°22'0 0.0
2017-Oct-02 07:00N 39°21' W 009°22'0 0.0
2017-Oct-02 06:31N 39°21' W 009°22'0 0.0
2017-Oct-02 06:00N 39°21' W 009°22'0 0.0
2017-Oct-02 05:30N 39°21' W 009°22'0 0.0
2017-Oct-02 04:50N 39°21' W 009°22'0 0.0
2017-Oct-02 04:29N 39°21' W 009°22'0 0.0
2017-Oct-02 02:59N 39°21' W 009°22'0 0.0
2017-Oct-02 02:30N 39°21' W 009°22'0 0.0
2017-Oct-02 00:30N 39°21' W 009°22'0 0.0
2017-Sep-30 01:30N 39°21' W 009°22'0 0.0
2017-Sep-30 00:55N 39°21' W 009°22'0 0.0
2017-Sep-30 00:30N 39°21' W 009°22'0 0.0
2017-Sep-29 23:49N 39°21' W 009°22'0 0.0
2017-Sep-29 14:30N 39°21' W 009°22'0 0.0
2017-Sep-29 13:12N 39°21' W 009°22'0 0.0
2017-Sep-29 12:40N 39°21' W 009°22'0 0.0
2017-Sep-29 12:21N 39°21' W 009°22'0 0.0
2017-Sep-29 11:58N 39°21' W 009°22'0 0.0
2017-Sep-29 11:27N 39°21' W 009°22'0 0.0
2017-Sep-29 10:58N 39°21' W 009°22'0 0.0
2017-Sep-29 10:23N 39°21' W 009°22'0 0.0
2017-Sep-29 09:47N 39°21' W 009°22'0 0.0
2017-Sep-29 09:12N 39°21' W 009°22'0 0.0
2017-Sep-29 08:46N 39°21' W 009°22'0 0.0
2017-Sep-29 08:20N 39°21' W 009°22'0 0.0
2017-Sep-29 07:39N 39°21' W 009°22'0 0.0
2017-Sep-29 07:28N 39°21' W 009°22'0 0.0
2017-Sep-29 07:00N 39°21' W 009°22'0 0.0
2017-Sep-29 05:26N 39°21' W 009°22'0 0.0
2017-Sep-29 04:58N 39°21' W 009°22'0 0.0
2017-Sep-29 04:30N 39°21' W 009°22'0 0.0
2017-Sep-29 03:59N 39°21' W 009°22'0 0.0
2017-Sep-29 03:10N 39°21' W 009°22'0 0.0
2017-Sep-29 02:56N 39°21' W 009°22'0 0.0
2017-Sep-29 02:29N 39°21' W 009°22'0 0.0
2017-Sep-29 01:41N 39°21' W 009°22'0 0.0
2017-Sep-29 01:27N 39°21' W 009°22'0 0.0
2017-Sep-29 01:00N 39°21' W 009°22'0 0.0
2017-Sep-29 00:27N 39°21' W 009°22'0 0.0
2017-Sep-29 00:00N 39°21' W 009°22'0 0.0
2017-Sep-28 23:20N 39°21' W 009°22'0 0.0
2017-Sep-28 22:59N 39°21' W 009°22'0 0.0
2017-Sep-28 21:33N 39°21' W 009°22'0 0.0
2017-Sep-28 20:20N 39°21' W 009°22'0 0.0
2017-Sep-28 20:00N 39°21' W 009°22'0 0.0
2017-Sep-28 19:30N 39°21' W 009°22'0 0.0
2017-Sep-28 18:57N 39°21' W 009°22'0 0.0
2017-Sep-28 18:07N 39°21' W 009°22'0 0.0
2017-Sep-28 18:00N 39°21' W 009°22'0 0.0
2017-Sep-28 17:24N 39°21' W 009°22'0 0.0
2017-Sep-28 17:00N 39°21' W 009°22'0 0.0
2017-Sep-28 16:23N 39°21' W 009°22'0 0.0
2017-Sep-28 15:57N 39°21' W 009°22'0 0.0
2017-Sep-28 15:30N 39°21' W 009°22'0 0.0
2017-Sep-28 14:59N 39°21' W 009°22'0 0.0
2017-Sep-28 14:30N 39°21' W 009°22'0 0.0
2017-Sep-28 13:49N 39°21' W 009°22'0 0.0
2017-Sep-28 13:28N 39°21' W 009°22'0 0.0
2017-Sep-28 12:57N 39°21' W 009°22'0 0.0
2017-Sep-28 12:30N 39°21' W 009°22'0 0.0
2017-Sep-28 11:04N 39°21' W 009°22'0 0.0
2017-Sep-28 10:40N 39°21' W 009°22'0 0.0
2017-Sep-28 10:20N 39°21' W 009°22'0 0.0
2017-Sep-28 09:59N 39°21' W 009°22'0 0.0
2017-Sep-28 09:30N 39°21' W 009°22'0 0.0
2017-Sep-28 08:10N 39°21' W 009°22'0 0.0
2017-Sep-28 07:57N 39°21' W 009°22'0 0.0
2017-Sep-28 07:30N 39°21' W 009°22'0 0.0
2017-Sep-28 07:00N 39°21' W 009°22'  

Dump ship's entire track history